createdAt,value
2016-10-07T00:00:31.250Z,0
2016-10-07T00:01:44.192Z,0
2016-10-07T00:02:57.118Z,0
2016-10-07T00:04:10.105Z,0
2016-10-07T00:05:22.508Z,0
2016-10-07T00:06:35.028Z,0
2016-10-07T00:07:47.402Z,0
2016-10-07T00:08:59.839Z,0
2016-10-07T00:10:12.275Z,0
2016-10-07T00:11:25.202Z,0
2016-10-07T00:12:38.746Z,0
2016-10-07T00:13:51.655Z,0
2016-10-07T00:15:05.150Z,0
2016-10-07T00:16:17.595Z,0
2016-10-07T00:17:30.095Z,0
2016-10-07T00:18:42.561Z,0
2016-10-07T00:19:55.538Z,0
2016-10-07T00:21:07.911Z,0
2016-10-07T00:22:21.302Z,0
2016-10-07T00:23:34.266Z,0
2016-10-07T00:24:46.711Z,0
2016-10-07T00:26:00.223Z,0
2016-10-07T00:27:13.104Z,0
2016-10-07T00:28:26.677Z,0
2016-10-07T00:29:39.644Z,0
2016-10-07T00:30:52.565Z,0
2016-10-07T00:32:05.524Z,0
2016-10-07T00:33:18.588Z,0
2016-10-07T00:34:31.537Z,0
2016-10-07T00:35:44.556Z,0
2016-10-07T00:36:56.985Z,0
2016-10-07T00:38:09.938Z,0
2016-10-07T00:39:21.966Z,0
2016-10-07T00:40:34.931Z,0
2016-10-07T00:41:48.459Z,0
2016-10-07T00:43:01.541Z,0
2016-10-07T00:44:14.500Z,0
2016-10-07T00:45:27.496Z,0
2016-10-07T00:46:40.516Z,0
2016-10-07T00:47:53.479Z,0
2016-10-07T00:49:06.939Z,0
2016-10-07T00:50:19.428Z,0
2016-10-07T00:51:32.340Z,0
2016-10-07T00:52:45.302Z,0
2016-10-07T00:53:58.829Z,0
2016-10-07T00:55:10.749Z,0
2016-10-07T00:56:24.186Z,0
2016-10-07T00:57:37.094Z,0
2016-10-07T00:58:50.500Z,0
2016-10-07T01:00:02.906Z,0
2016-10-07T01:01:15.976Z,0
2016-10-07T01:02:29.456Z,0
2016-10-07T01:03:41.896Z,0
2016-10-07T01:04:54.348Z,0
2016-10-07T01:06:06.802Z,0
2016-10-07T01:07:20.318Z,0
2016-10-07T01:08:32.197Z,0
2016-10-07T01:09:44.132Z,0
2016-10-07T01:10:57.058Z,0
2016-10-07T01:12:10.584Z,0
2016-10-07T01:13:24.104Z,0
2016-10-07T01:14:37.649Z,0
2016-10-07T01:15:50.101Z,0
2016-10-07T01:17:03.122Z,0
2016-10-07T01:18:16.085Z,0
2016-10-07T01:19:28.960Z,0
2016-10-07T01:20:41.431Z,0
2016-10-07T01:21:54.865Z,0
2016-10-07T01:23:07.426Z,0
2016-10-07T01:24:20.865Z,0
2016-10-07T01:25:33.819Z,0
2016-10-07T01:26:47.196Z,0
2016-10-07T01:27:59.736Z,0
2016-10-07T01:29:13.235Z,0
2016-10-07T01:30:26.209Z,0
2016-10-07T01:31:39.192Z,0
2016-10-07T01:32:52.171Z,0
2016-10-07T01:34:05.261Z,0
2016-10-07T01:35:17.696Z,0
2016-10-07T01:36:30.148Z,0
2016-10-07T01:37:43.047Z,0
2016-10-07T01:38:55.941Z,0
2016-10-07T01:40:08.348Z,0
2016-10-07T01:41:21.334Z,0
2016-10-07T01:42:34.295Z,0
2016-10-07T01:43:46.743Z,0
2016-10-07T01:44:59.782Z,0
2016-10-07T01:46:13.236Z,0
2016-10-07T01:47:26.264Z,0
2016-10-07T01:48:39.805Z,0
2016-10-07T01:49:52.776Z,0
2016-10-07T01:51:06.275Z,0
2016-10-07T01:52:19.264Z,0
2016-10-07T01:53:31.091Z,0
2016-10-07T01:54:43.503Z,0
2016-10-07T01:55:56.581Z,0
2016-10-07T01:57:09.586Z,0
2016-10-07T01:58:23.029Z,0
2016-10-07T01:59:36.094Z,0
2016-10-07T02:00:49.562Z,0
2016-10-07T02:02:02.501Z,0
2016-10-07T02:03:16.014Z,0
2016-10-07T02:04:28.982Z,0
2016-10-07T02:05:42.018Z,0
2016-10-07T02:06:55.546Z,0
2016-10-07T02:08:08.580Z,0
2016-10-07T02:09:21.529Z,0
2016-10-07T02:10:34.480Z,0
2016-10-07T02:11:48.214Z,0
2016-10-07T02:13:00.671Z,0
2016-10-07T02:14:13.659Z,0
2016-10-07T02:15:25.040Z,0
2016-10-07T02:16:38.034Z,0
2016-10-07T02:17:51.591Z,0
2016-10-07T02:19:05.099Z,0
2016-10-07T02:20:18.062Z,0
2016-10-07T02:21:31.530Z,0
2016-10-07T02:22:44.511Z,0
2016-10-07T02:23:56.443Z,0
2016-10-07T02:25:08.892Z,0
2016-10-07T02:26:21.830Z,0
2016-10-07T02:27:34.734Z,0
2016-10-07T02:28:47.759Z,0
2016-10-07T02:30:00.739Z,0
2016-10-07T02:31:14.196Z,0
2016-10-07T02:32:26.609Z,0
2016-10-07T02:33:39.599Z,0
2016-10-07T02:34:52.015Z,0
2016-10-07T02:36:04.450Z,0
2016-10-07T02:37:16.404Z,0
2016-10-07T02:38:29.331Z,0
2016-10-07T02:39:42.447Z,0
2016-10-07T02:40:54.330Z,0
2016-10-07T02:42:06.812Z,0
2016-10-07T02:43:19.206Z,0
2016-10-07T02:44:32.164Z,0
2016-10-07T02:45:45.131Z,0
2016-10-07T02:46:57.531Z,0
2016-10-07T02:48:09.894Z,0
2016-10-07T02:49:22.374Z,0
2016-10-07T02:50:35.381Z,0
2016-10-07T02:51:48.332Z,0
2016-10-07T02:53:01.329Z,0
2016-10-07T02:54:14.369Z,0
2016-10-07T02:55:26.259Z,0
2016-10-07T02:56:38.753Z,0
2016-10-07T02:57:51.177Z,0
2016-10-07T02:59:03.626Z,0
2016-10-07T03:00:16.075Z,0
2016-10-07T03:01:28.649Z,0
2016-10-07T03:02:40.499Z,0
2016-10-07T03:03:52.925Z,0
2016-10-07T03:05:06.440Z,0
2016-10-07T03:06:19.947Z,0
2016-10-07T03:07:32.909Z,0
2016-10-07T03:08:45.393Z,0
2016-10-07T03:09:58.350Z,0
2016-10-07T03:11:11.304Z,0
2016-10-07T03:12:23.848Z,0
2016-10-07T03:13:36.212Z,0
2016-10-07T03:14:48.647Z,0
2016-10-07T03:16:01.629Z,0
2016-10-07T03:17:14.576Z,0
2016-10-07T03:18:26.958Z,0
2016-10-07T03:19:39.489Z,0
2016-10-07T03:20:51.948Z,0
2016-10-07T03:22:04.400Z,0
2016-10-07T03:23:17.963Z,0
2016-10-07T03:24:31.026Z,0
2016-10-07T03:25:44.021Z,0
2016-10-07T03:26:57.016Z,0
2016-10-07T03:28:10.126Z,0
2016-10-07T03:29:23.506Z,0
2016-10-07T03:30:35.490Z,0
2016-10-07T03:31:48.981Z,0
2016-10-07T03:33:01.994Z,0
2016-10-07T03:34:15.518Z,0
2016-10-07T03:35:28.471Z,0
2016-10-07T03:36:41.950Z,0
2016-10-07T03:37:54.920Z,0
2016-10-07T03:39:07.340Z,0
2016-10-07T03:40:19.781Z,0
2016-10-07T03:41:31.695Z,0
2016-10-07T03:42:44.640Z,0
2016-10-07T03:43:57.672Z,0
2016-10-07T03:45:11.451Z,0
2016-10-07T03:46:24.355Z,0
2016-10-07T03:47:37.860Z,0
2016-10-07T03:48:51.420Z,0
2016-10-07T03:50:05.019Z,0
2016-10-07T03:51:17.419Z,0
2016-10-07T03:52:30.390Z,0
2016-10-07T03:53:43.324Z,0
2016-10-07T03:54:56.801Z,0
2016-10-07T03:56:09.806Z,0
2016-10-07T03:57:22.785Z,0
2016-10-07T03:58:36.241Z,0
2016-10-07T03:59:49.770Z,0
2016-10-07T04:01:03.244Z,0
2016-10-07T04:02:16.708Z,0
2016-10-07T04:03:30.232Z,0
2016-10-07T04:04:43.180Z,0
2016-10-07T04:05:56.176Z,0
2016-10-07T04:07:09.223Z,0
2016-10-07T04:08:22.197Z,0
2016-10-07T04:09:34.086Z,0
2016-10-07T04:10:47.657Z,0
2016-10-07T04:12:00.597Z,0
2016-10-07T04:13:14.106Z,0
2016-10-07T04:14:27.182Z,0
2016-10-07T04:15:40.131Z,0
2016-10-07T04:16:53.599Z,0
2016-10-07T04:18:07.147Z,0
2016-10-07T04:19:20.120Z,0
2016-10-07T04:20:33.644Z,0
2016-10-07T04:21:47.171Z,0
2016-10-07T04:23:00.153Z,0
2016-10-07T04:24:12.627Z,0
2016-10-07T04:25:26.070Z,0
2016-10-07T04:26:39.544Z,0
2016-10-07T04:27:51.456Z,0
2016-10-07T04:29:04.068Z,0
2016-10-07T04:30:17.538Z,0
2016-10-07T04:31:30.517Z,0
2016-10-07T04:32:43.428Z,0
2016-10-07T04:33:55.872Z,0
2016-10-07T04:35:08.858Z,0
2016-10-07T04:36:21.277Z,0
2016-10-07T04:37:33.211Z,0
2016-10-07T04:38:46.183Z,0
2016-10-07T04:39:59.347Z,0
2016-10-07T04:41:11.774Z,0
2016-10-07T04:42:25.300Z,0
2016-10-07T04:43:38.804Z,0
2016-10-07T04:44:51.357Z,0
2016-10-07T04:46:04.381Z,0
2016-10-07T04:47:17.323Z,0
2016-10-07T04:48:30.312Z,0
2016-10-07T04:49:42.240Z,0
2016-10-07T04:50:54.260Z,0
2016-10-07T04:52:06.720Z,0
2016-10-07T04:53:19.200Z,0
2016-10-07T04:54:32.191Z,0
2016-10-07T04:55:45.680Z,0
2016-10-07T04:56:59.258Z,0
2016-10-07T04:58:12.259Z,0
2016-10-07T04:59:25.201Z,0
2016-10-07T05:00:37.679Z,0
2016-10-07T05:01:51.267Z,0
2016-10-07T05:03:04.430Z,0
2016-10-07T05:04:16.866Z,0
2016-10-07T05:05:29.833Z,0
2016-10-07T05:06:42.243Z,0
2016-10-07T05:07:54.612Z,0
2016-10-07T05:09:08.149Z,0
2016-10-07T05:10:21.667Z,0
2016-10-07T05:11:34.053Z,0
2016-10-07T05:12:46.068Z,0
2016-10-07T05:13:58.475Z,0
2016-10-07T05:15:09.362Z,0
2016-10-07T05:16:22.356Z,0
2016-10-07T05:17:35.815Z,0
2016-10-07T05:18:48.542Z,0
2016-10-07T05:20:00.980Z,0
2016-10-07T05:21:12.912Z,0
2016-10-07T05:22:24.820Z,0
2016-10-07T05:23:37.941Z,0
2016-10-07T05:24:50.865Z,0
2016-10-07T05:26:03.808Z,0
2016-10-07T05:27:16.249Z,0
2016-10-07T05:28:28.724Z,0
2016-10-07T05:29:42.162Z,0
2016-10-07T05:30:54.081Z,0
2016-10-07T05:32:06.474Z,0
2016-10-07T05:33:19.425Z,0
2016-10-07T05:34:32.565Z,0
2016-10-07T05:35:45.557Z,0
2016-10-07T05:36:59.020Z,0
2016-10-07T05:38:11.495Z,0
2016-10-07T05:39:23.990Z,0
2016-10-07T05:40:37.508Z,0
2016-10-07T05:41:51.078Z,0
2016-10-07T05:43:03.488Z,0
2016-10-07T05:44:15.894Z,0
2016-10-07T05:45:29.563Z,0
2016-10-07T05:46:40.904Z,0
2016-10-07T05:47:54.441Z,0
2016-10-07T05:49:07.342Z,0
2016-10-07T05:50:20.823Z,0
2016-10-07T05:51:33.546Z,0
2016-10-07T05:52:46.447Z,0
2016-10-07T05:53:59.359Z,0
2016-10-07T05:55:11.342Z,0
2016-10-07T05:56:22.976Z,0
2016-10-07T05:57:36.430Z,0
2016-10-07T05:58:50.135Z,0
2016-10-07T06:00:03.044Z,0
2016-10-07T06:01:15.426Z,0
2016-10-07T06:02:28.375Z,0
2016-10-07T06:03:41.866Z,0
2016-10-07T06:04:55.302Z,0
2016-10-07T06:06:08.262Z,0
2016-10-07T06:07:21.407Z,0
2016-10-07T06:08:33.310Z,0
2016-10-07T06:09:46.812Z,0
2016-10-07T06:10:59.814Z,0
2016-10-07T06:12:11.721Z,0
2016-10-07T06:13:24.885Z,0
2016-10-07T06:14:37.854Z,0
2016-10-07T06:15:51.347Z,0
2016-10-07T06:17:04.356Z,0
2016-10-07T06:18:16.863Z,0
2016-10-07T06:19:29.267Z,0
2016-10-07T06:20:42.763Z,0
2016-10-07T06:21:55.219Z,0
2016-10-07T06:23:07.703Z,0
2016-10-07T06:24:21.255Z,0
2016-10-07T06:25:34.803Z,0
2016-10-07T06:26:48.290Z,0
2016-10-07T06:28:01.907Z,0
2016-10-07T06:29:15.633Z,0
2016-10-07T06:30:28.545Z,0
2016-10-07T06:31:41.965Z,0
2016-10-07T06:32:54.379Z,0
2016-10-07T06:34:06.837Z,0
2016-10-07T06:35:19.817Z,0
2016-10-07T06:36:33.263Z,0
2016-10-07T06:37:46.339Z,0
2016-10-07T06:39:00.048Z,0
2016-10-07T06:40:13.671Z,0
2016-10-07T06:41:26.098Z,0
2016-10-07T06:42:38.588Z,0
2016-10-07T06:43:51.519Z,0
2016-10-07T06:45:04.456Z,0
2016-10-07T06:46:17.404Z,0
2016-10-07T06:47:29.288Z,0
2016-10-07T06:48:42.482Z,0
2016-10-07T06:49:55.976Z,0
2016-10-07T06:51:09.038Z,0
2016-10-07T06:52:21.991Z,0
2016-10-07T06:53:35.525Z,0
2016-10-07T06:54:48.519Z,0
2016-10-07T06:56:01.091Z,0
2016-10-07T06:57:14.011Z,0
2016-10-07T06:58:27.503Z,0
2016-10-07T06:59:39.390Z,0
2016-10-07T07:00:52.408Z,0
2016-10-07T07:02:06.098Z,0
2016-10-07T07:03:19.112Z,0
2016-10-07T07:04:31.590Z,0
2016-10-07T07:05:44.009Z,0
2016-10-07T07:06:55.917Z,0
2016-10-07T07:08:09.634Z,0
2016-10-07T07:09:22.100Z,0
2016-10-07T07:10:34.492Z,0
2016-10-07T07:11:46.403Z,0
2016-10-07T07:13:00.050Z,0
2016-10-07T07:14:13.033Z,0
2016-10-07T07:15:26.541Z,0
2016-10-07T07:16:39.479Z,0
2016-10-07T07:17:53.143Z,0
2016-10-07T07:19:06.985Z,0
2016-10-07T07:20:20.750Z,0
2016-10-07T07:21:34.297Z,0
2016-10-07T07:22:47.715Z,0
2016-10-07T07:24:01.340Z,0
2016-10-07T07:25:14.818Z,0
2016-10-07T07:26:27.298Z,0
2016-10-07T07:27:39.728Z,0
2016-10-07T07:28:52.820Z,0
2016-10-07T07:30:06.315Z,0
2016-10-07T07:31:18.267Z,0
2016-10-07T07:32:30.647Z,0
2016-10-07T07:33:43.662Z,0
2016-10-07T07:34:56.794Z,0
2016-10-07T07:36:09.745Z,0
2016-10-07T07:37:22.730Z,0
2016-10-07T07:38:36.221Z,0
2016-10-07T07:39:49.874Z,0
2016-10-07T07:41:02.343Z,0
2016-10-07T07:42:15.271Z,0
2016-10-07T07:43:28.752Z,0
2016-10-07T07:44:41.708Z,0
2016-10-07T07:45:54.269Z,0
2016-10-07T07:47:07.840Z,0
2016-10-07T07:48:21.351Z,0
2016-10-07T07:49:33.778Z,0
2016-10-07T07:50:46.889Z,0
2016-10-07T07:52:00.364Z,0
2016-10-07T07:53:13.831Z,0
2016-10-07T07:54:26.832Z,0
2016-10-07T07:55:39.745Z,0
2016-10-07T07:56:52.384Z,0
2016-10-07T07:58:04.813Z,0
2016-10-07T07:59:17.691Z,0
2016-10-07T08:00:31.176Z,0
2016-10-07T08:01:44.195Z,0
2016-10-07T08:02:57.180Z,0
2016-10-07T08:04:10.677Z,0
2016-10-07T08:05:24.175Z,0
2016-10-07T08:06:36.614Z,0
2016-10-07T08:07:49.618Z,0
2016-10-07T08:09:02.566Z,0
2016-10-07T08:10:15.547Z,0
2016-10-07T08:11:29.201Z,0
2016-10-07T08:12:42.145Z,0
2016-10-07T08:13:54.538Z,0
2016-10-07T08:15:07.404Z,0
2016-10-07T08:16:20.378Z,0
2016-10-07T08:17:33.362Z,0
2016-10-07T08:18:45.859Z,0
2016-10-07T08:19:58.281Z,0
2016-10-07T08:21:11.256Z,4
2016-10-07T08:22:23.156Z,4
2016-10-07T08:23:36.135Z,0
2016-10-07T08:24:48.627Z,4
2016-10-07T08:26:01.060Z,8
2016-10-07T08:27:14.098Z,8
2016-10-07T08:28:27.557Z,12
2016-10-07T08:29:40.747Z,16
2016-10-07T08:30:54.246Z,16
2016-10-07T08:32:07.482Z,24
2016-10-07T08:33:19.847Z,32
2016-10-07T08:34:31.175Z,44
2016-10-07T08:35:44.831Z,48
2016-10-07T08:36:57.857Z,60
2016-10-07T08:38:11.386Z,72
2016-10-07T08:39:24.430Z,92
2016-10-07T08:40:38.169Z,104
2016-10-07T08:41:51.870Z,128
2016-10-07T08:43:04.298Z,144
2016-10-07T08:44:17.747Z,160
2016-10-07T08:45:30.812Z,184
2016-10-07T08:46:43.230Z,208
2016-10-07T08:47:56.185Z,212
2016-10-07T08:49:08.628Z,228
2016-10-07T08:50:21.618Z,244
2016-10-07T08:51:34.777Z,268
2016-10-07T08:52:47.180Z,324
2016-10-07T08:53:59.606Z,400
2016-10-07T08:55:11.513Z,472
2016-10-07T08:56:24.449Z,504
2016-10-07T08:57:37.092Z,544
2016-10-07T08:58:50.078Z,612
2016-10-07T09:00:03.148Z,688
2016-10-07T09:01:16.053Z,800
2016-10-07T09:02:28.660Z,888
2016-10-07T09:03:42.177Z,948
2016-10-07T09:04:55.177Z,1024
2016-10-07T09:06:08.155Z,1148
2016-10-07T09:07:21.242Z,1328
2016-10-07T09:08:34.208Z,1376
2016-10-07T09:09:47.200Z,1332
2016-10-07T09:10:59.138Z,1288
2016-10-07T09:12:12.110Z,1308
2016-10-07T09:13:25.256Z,1424
2016-10-07T09:14:38.239Z,1712
2016-10-07T09:15:50.857Z,1952
2016-10-07T09:17:03.839Z,2064
2016-10-07T09:18:17.377Z,1960
2016-10-07T09:19:29.822Z,1920
2016-10-07T09:20:42.792Z,2056
2016-10-07T09:21:55.822Z,2336
2016-10-07T09:23:07.764Z,2404
2016-10-07T09:24:20.454Z,2508
2016-10-07T09:25:33.390Z,2560
2016-10-07T09:26:45.828Z,2796
2016-10-07T09:27:59.353Z,3144
2016-10-07T09:29:13.012Z,3460
2016-10-07T09:30:24.936Z,3900
2016-10-07T09:31:38.428Z,4576
2016-10-07T09:32:51.859Z,5140
2016-10-07T09:34:03.772Z,5356
2016-10-07T09:35:16.830Z,5828
2016-10-07T09:36:30.266Z,6308
2016-10-07T09:37:42.136Z,6772
2016-10-07T09:38:55.177Z,6244
2016-10-07T09:40:08.234Z,5484
2016-10-07T09:41:21.154Z,5076
2016-10-07T09:42:32.604Z,5700
2016-10-07T09:43:45.234Z,6028
2016-10-07T09:44:58.206Z,6364
2016-10-07T09:46:10.264Z,6336
2016-10-07T09:47:23.806Z,6408
2016-10-07T09:48:36.713Z,6408
2016-10-07T09:49:49.629Z,6320
2016-10-07T09:51:03.326Z,6212
2016-10-07T09:52:16.309Z,6108
2016-10-07T09:53:29.280Z,5956
2016-10-07T09:54:40.631Z,6440
2016-10-07T09:55:53.619Z,7412
2016-10-07T09:57:06.727Z,8160
2016-10-07T09:58:19.676Z,7984
2016-10-07T09:59:32.156Z,7976
2016-10-07T10:00:45.118Z,7904
2016-10-07T10:01:58.074Z,7896
2016-10-07T10:03:10.437Z,7852
2016-10-07T10:04:23.349Z,7524
2016-10-07T10:05:36.880Z,7488
2016-10-07T10:06:49.447Z,7732
2016-10-07T10:08:02.031Z,8316
2016-10-07T10:09:14.531Z,9588
2016-10-07T10:10:27.635Z,10652
2016-10-07T10:11:41.493Z,11184
2016-10-07T10:12:53.989Z,10800
2016-10-07T10:14:07.008Z,10340
2016-10-07T10:15:20.104Z,10272
2016-10-07T10:16:33.198Z,11236
2016-10-07T10:17:46.141Z,11184
2016-10-07T10:18:59.305Z,10408
2016-10-07T10:20:12.811Z,10772
2016-10-07T10:21:26.499Z,11004
2016-10-07T10:22:38.933Z,9936
2016-10-07T10:23:50.853Z,9580
2016-10-07T10:25:03.804Z,9896
2016-10-07T10:26:16.793Z,10088
2016-10-07T10:27:29.287Z,9616
2016-10-07T10:28:41.739Z,9224
2016-10-07T10:29:55.317Z,8652
2016-10-07T10:31:07.265Z,8804
2016-10-07T10:32:19.780Z,9416
2016-10-07T10:33:32.747Z,10136
2016-10-07T10:34:45.787Z,10536
2016-10-07T10:35:58.770Z,10836
2016-10-07T10:37:11.595Z,10180
2016-10-07T10:38:23.721Z,11444
2016-10-07T10:39:36.821Z,12572
2016-10-07T10:40:50.066Z,11576
2016-10-07T10:42:02.017Z,9100
2016-10-07T10:43:14.378Z,7356
2016-10-07T10:44:27.280Z,6684
2016-10-07T10:45:40.803Z,6472
2016-10-07T10:46:53.362Z,6572
2016-10-07T10:48:06.608Z,6712
2016-10-07T10:49:19.071Z,6448
2016-10-07T10:50:32.010Z,6488
2016-10-07T10:51:44.128Z,7140
2016-10-07T10:52:57.033Z,7308
2016-10-07T10:54:10.008Z,7172
2016-10-07T10:55:22.959Z,7464
2016-10-07T10:56:36.672Z,8440
2016-10-07T10:57:49.666Z,9832
2016-10-07T10:59:03.101Z,11368
2016-10-07T11:00:16.085Z,12456
2016-10-07T11:01:29.045Z,13280
2016-10-07T11:02:41.720Z,12808
2016-10-07T11:03:55.210Z,14076
2016-10-07T11:05:07.128Z,15168
2016-10-07T11:06:20.106Z,14216
2016-10-07T11:07:33.041Z,12792
2016-10-07T11:08:46.618Z,12292
2016-10-07T11:09:59.080Z,13188
2016-10-07T11:11:12.084Z,12752
2016-10-07T11:12:25.075Z,12720
2016-10-07T11:13:38.107Z,12676
2016-10-07T11:14:51.101Z,13180
2016-10-07T11:16:04.092Z,14768
2016-10-07T11:17:17.550Z,16212
2016-10-07T11:18:30.557Z,16896
2016-10-07T11:19:43.003Z,17440
2016-10-07T11:20:56.016Z,17920
2016-10-07T11:22:08.485Z,18016
2016-10-07T11:23:21.487Z,17920
2016-10-07T11:24:35.148Z,18048
2016-10-07T11:25:47.654Z,18112
2016-10-07T11:27:00.890Z,18240
2016-10-07T11:28:13.375Z,18592
2016-10-07T11:29:26.881Z,18208
2016-10-07T11:30:40.315Z,18496
2016-10-07T11:31:53.257Z,18368
2016-10-07T11:33:06.262Z,17664
2016-10-07T11:34:19.274Z,16540
2016-10-07T11:35:32.897Z,15348
2016-10-07T11:36:45.482Z,13868
2016-10-07T11:37:58.484Z,12844
2016-10-07T11:39:11.972Z,13292
2016-10-07T11:40:25.068Z,13952
2016-10-07T11:41:37.575Z,14836
2016-10-07T11:42:49.863Z,15360
2016-10-07T11:44:02.853Z,16928
2016-10-07T11:45:15.828Z,18208
2016-10-07T11:46:28.341Z,20480
2016-10-07T11:47:41.302Z,21568
2016-10-07T11:48:53.769Z,20832
2016-10-07T11:50:05.713Z,19488
2016-10-07T11:51:19.364Z,17728
2016-10-07T11:52:31.967Z,17024
2016-10-07T11:53:44.509Z,17600
2016-10-07T11:54:56.941Z,17888
2016-10-07T11:56:09.514Z,19392
2016-10-07T11:57:22.674Z,20800
2016-10-07T11:58:35.085Z,23136
2016-10-07T11:59:47.581Z,20320
2016-10-07T12:01:00.082Z,20736
2016-10-07T12:02:13.606Z,22496
2016-10-07T12:03:26.755Z,21920
2016-10-07T12:04:39.964Z,21472
2016-10-07T12:05:52.902Z,19648
2016-10-07T12:07:05.857Z,19456
2016-10-07T12:08:18.963Z,20000
2016-10-07T12:09:31.455Z,20128
2016-10-07T12:10:44.504Z,19616
2016-10-07T12:11:57.447Z,18720
2016-10-07T12:13:10.762Z,17824
2016-10-07T12:14:23.907Z,16396
2016-10-07T12:15:36.815Z,15428
2016-10-07T12:16:50.311Z,15336
2016-10-07T12:18:03.292Z,15956
2016-10-07T12:19:16.017Z,21856
2016-10-07T12:20:29.508Z,24992
2016-10-07T12:21:42.448Z,27840
2016-10-07T12:22:55.406Z,25408
2016-10-07T12:24:08.328Z,23296
2016-10-07T12:25:21.431Z,22048
2016-10-07T12:26:34.447Z,20512
2016-10-07T12:27:47.232Z,18592
2016-10-07T12:28:59.723Z,17408
2016-10-07T12:30:12.510Z,16112
2016-10-07T12:31:25.571Z,15040
2016-10-07T12:32:39.099Z,14432
2016-10-07T12:33:52.051Z,14512
2016-10-07T12:35:05.226Z,14916
2016-10-07T12:36:18.178Z,15676
2016-10-07T12:37:30.614Z,17248
2016-10-07T12:38:43.021Z,19136
2016-10-07T12:39:55.514Z,20416
2016-10-07T12:41:09.136Z,20608
2016-10-07T12:42:22.314Z,20960
2016-10-07T12:43:34.793Z,21984
2016-10-07T12:44:47.214Z,22912
2016-10-07T12:46:00.933Z,23104
2016-10-07T12:47:16.953Z,20352
2016-10-07T12:48:32.193Z,25344
2016-10-07T12:49:44.903Z,22912
2016-10-07T12:50:58.489Z,22080
2016-10-07T12:52:11.815Z,20192
2016-10-07T12:53:25.257Z,13784
2016-10-07T12:54:38.207Z,21184
2016-10-07T12:55:50.121Z,19680
2016-10-07T12:57:02.599Z,17160
2016-10-07T12:58:15.605Z,26656
2016-10-07T12:59:28.321Z,24224
2016-10-07T13:00:41.311Z,17760
2016-10-07T13:01:54.335Z,19072
2016-10-07T13:03:07.383Z,21088
2016-10-07T13:04:20.885Z,22912
2016-10-07T13:05:33.877Z,23744
2016-10-07T13:06:46.894Z,23808
2016-10-07T13:08:00.457Z,23136
2016-10-07T13:09:14.027Z,22464
2016-10-07T13:10:27.065Z,22144
2016-10-07T13:11:41.192Z,30688
2016-10-07T13:12:53.508Z,27424
2016-10-07T13:14:06.264Z,31936
2016-10-07T13:15:19.279Z,29504
2016-10-07T13:16:30.674Z,27520
2016-10-07T13:17:44.224Z,30272
2016-10-07T13:18:56.843Z,19008
2016-10-07T13:20:09.293Z,22784
2016-10-07T13:21:21.232Z,16628
2016-10-07T13:22:33.689Z,16984
2016-10-07T13:23:46.667Z,26304
2016-10-07T13:24:59.234Z,26144
2016-10-07T13:26:12.892Z,17092
2016-10-07T13:27:24.902Z,18080
2016-10-07T13:28:37.931Z,24160
2016-10-07T13:29:51.942Z,25696
2016-10-07T13:31:04.992Z,26176
2016-10-07T13:32:18.071Z,27904
2016-10-07T13:33:31.117Z,30752
2016-10-07T13:34:44.793Z,24704
2016-10-07T13:35:58.392Z,27360
2016-10-07T13:37:11.299Z,34624
2016-10-07T13:38:24.321Z,26784
2016-10-07T13:39:36.916Z,23648
2016-10-07T13:40:49.497Z,31424
2016-10-07T13:42:02.504Z,26592
2016-10-07T13:43:15.556Z,28992
2016-10-07T13:44:28.569Z,27488
2016-10-07T13:45:41.019Z,36032
2016-10-07T13:46:54.454Z,33792
2016-10-07T13:48:07.449Z,31744
2016-10-07T13:49:20.797Z,30144
2016-10-07T13:50:34.097Z,29632
2016-10-07T13:51:46.653Z,31264
2016-10-07T13:53:00.353Z,21664
2016-10-07T13:54:12.757Z,22432
2016-10-07T13:55:25.724Z,24256
2016-10-07T13:56:39.037Z,24960
2016-10-07T13:57:52.705Z,23936
2016-10-07T13:59:06.156Z,24384
2016-10-07T14:00:19.735Z,24768
2016-10-07T14:01:32.703Z,28992
2016-10-07T14:02:44.735Z,38400
2016-10-07T14:03:57.177Z,37888
2016-10-07T14:05:09.615Z,23616
2016-10-07T14:06:23.041Z,21440
2016-10-07T14:07:35.928Z,23296
2016-10-07T14:08:49.414Z,23488
2016-10-07T14:10:02.862Z,37120
2016-10-07T14:11:16.394Z,20608
2016-10-07T14:12:29.877Z,36544
2016-10-07T14:13:43.217Z,36352
2016-10-07T14:14:57.616Z,36416
2016-10-07T14:16:11.476Z,37088
2016-10-07T14:17:25.155Z,36352
2016-10-07T14:18:38.696Z,21184
2016-10-07T14:19:51.636Z,21600
2016-10-07T14:21:05.090Z,23424
2016-10-07T14:22:18.900Z,24384
2016-10-07T14:23:32.171Z,25024
2016-10-07T14:24:46.068Z,25632
2016-10-07T14:25:59.562Z,25280
2016-10-07T14:27:13.055Z,25792
2016-10-07T14:28:26.015Z,28128
2016-10-07T14:29:39.285Z,28352
2016-10-07T14:30:51.791Z,39424
2016-10-07T14:32:04.762Z,28736
2016-10-07T14:33:17.725Z,28224
2016-10-07T14:34:29.611Z,27648
2016-10-07T14:35:43.512Z,27168
2016-10-07T14:36:56.945Z,26656
2016-10-07T14:38:09.760Z,26144
2016-10-07T14:39:22.369Z,25600
2016-10-07T14:40:35.528Z,24768
2016-10-07T14:41:48.001Z,23744
2016-10-07T14:43:00.485Z,22784
2016-10-07T14:44:13.699Z,22048
2016-10-07T14:45:27.177Z,21600
2016-10-07T14:46:40.171Z,21696
2016-10-07T14:47:53.158Z,21728
2016-10-07T14:49:04.556Z,21760
2016-10-07T14:50:16.993Z,22656
2016-10-07T14:51:28.998Z,24064
2016-10-07T14:52:42.487Z,29248
2016-10-07T14:53:54.408Z,77120
2016-10-07T14:55:07.380Z,33504
2016-10-07T14:56:20.332Z,33024
2016-10-07T14:57:33.302Z,29120
2016-10-07T14:58:46.287Z,29216
2016-10-07T14:59:59.516Z,80704
2016-10-07T15:01:12.560Z,88992
2016-10-07T15:02:25.198Z,54816
2016-10-07T15:03:38.208Z,39744
2016-10-07T15:04:52.000Z,41280
2016-10-07T15:06:05.465Z,37408
2016-10-07T15:07:18.594Z,36384
2016-10-07T15:08:31.575Z,36160
2016-10-07T15:09:45.066Z,35456
2016-10-07T15:10:58.052Z,37312
2016-10-07T15:12:11.605Z,36896
2016-10-07T15:13:24.650Z,47264
2016-10-07T15:14:38.178Z,35712
2016-10-07T15:15:51.719Z,37184
2016-10-07T15:17:04.153Z,36864
2016-10-07T15:18:17.375Z,39584
2016-10-07T15:19:29.874Z,42496
2016-10-07T15:20:42.573Z,42176
2016-10-07T15:21:55.720Z,51552
2016-10-07T15:23:09.327Z,90944
2016-10-07T15:24:22.423Z,53088
2016-10-07T15:25:33.884Z,92064
2016-10-07T15:26:47.464Z,83136
2016-10-07T15:28:01.023Z,49024
2016-10-07T15:29:14.102Z,38752
2016-10-07T15:30:26.522Z,43360
2016-10-07T15:31:38.546Z,39232
2016-10-07T15:32:51.020Z,36960
2016-10-07T15:34:04.179Z,36256
2016-10-07T15:35:17.890Z,35872
2016-10-07T15:36:30.325Z,34944
2016-10-07T15:37:43.478Z,33920
2016-10-07T15:38:56.817Z,32864
2016-10-07T15:40:10.139Z,31712
2016-10-07T15:41:23.106Z,30752
2016-10-07T15:42:36.148Z,29760
2016-10-07T15:43:49.238Z,29024
2016-10-07T15:45:03.116Z,28896
2016-10-07T15:46:16.309Z,29632
2016-10-07T15:47:29.280Z,34048
2016-10-07T15:48:42.935Z,45344
2016-10-07T15:49:55.873Z,92352
2016-10-07T15:51:09.040Z,103584
2016-10-07T15:52:22.513Z,109728
2016-10-07T15:53:35.479Z,104288
2016-10-07T15:54:47.896Z,72448
2016-10-07T15:56:00.882Z,81024
2016-10-07T15:57:14.019Z,75616
2016-10-07T15:58:26.441Z,70304
2016-10-07T15:59:39.931Z,67360
2016-10-07T16:00:53.668Z,66464
2016-10-07T16:02:06.735Z,65248
2016-10-07T16:03:19.678Z,65312
2016-10-07T16:04:33.175Z,65760
2016-10-07T16:05:46.698Z,63872
2016-10-07T16:06:59.776Z,62752
2016-10-07T16:08:12.909Z,57216
2016-10-07T16:09:24.898Z,56704
2016-10-07T16:10:37.887Z,52160
2016-10-07T16:11:50.385Z,57792
2016-10-07T16:13:03.347Z,57760
2016-10-07T16:14:16.336Z,65632
2016-10-07T16:15:29.293Z,85632
2016-10-07T16:16:42.907Z,141184
2016-10-07T16:17:55.394Z,164672
2016-10-07T16:19:09.184Z,129984
2016-10-07T16:20:22.138Z,98784
2016-10-07T16:21:34.730Z,98176
2016-10-07T16:22:47.698Z,68992
2016-10-07T16:24:00.781Z,75744
2016-10-07T16:25:14.311Z,83744
2016-10-07T16:26:26.714Z,91744
2016-10-07T16:27:38.607Z,35264
2016-10-07T16:28:50.599Z,42560
2016-10-07T16:30:03.772Z,35200
2016-10-07T16:31:17.328Z,34016
2016-10-07T16:32:29.779Z,32192
2016-10-07T16:33:43.961Z,31040
2016-10-07T16:34:57.644Z,31616
2016-10-07T16:36:11.111Z,35072
2016-10-07T16:37:23.559Z,37472
2016-10-07T16:38:37.090Z,31072
2016-10-07T16:39:49.015Z,29248
2016-10-07T16:41:02.149Z,44928
2016-10-07T16:42:15.104Z,39552
2016-10-07T16:43:28.060Z,74656
2016-10-07T16:44:40.497Z,77952
2016-10-07T16:45:52.939Z,69088
2016-10-07T16:47:04.884Z,57408
2016-10-07T16:48:18.303Z,33344
2016-10-07T16:49:31.819Z,46144
2016-10-07T16:50:45.298Z,77504